East Burke, VT

3:01 PM EDT on August 30, 2016 (GMT -0400)
APRSWXNET | | Change Station

Elev 1484 ft 44.58 °N, 71.78 °W | Updated 26 minutes ago

Clear
Clear
74 °F
Feels Like 77 °F
N
1
Wind Variable Wind from SW
Gusts 3.0 mph

Today
High -- | Low -- °F
--% Chance of Precip.
Yesterday
High -- | Low -- °F
Precip. -- in
Pressure 30.10 in
Visibility 10.0 miles
Clouds Clear
Heat Index 77 °F
Dew Point 58 °F
Humidity 58%
Rainfall in
Snow Depth Not available.
6:08 AM 7:26 PM
Waning Crescent, 3% visible
METAR KCDA 301855Z AUTO 18004KT 10SM CLR 22/14 A3010 RMK AO2 T02240135
Pressure 30.10 in
Visibility 10.0 miles
Clouds Clear
Heat Index 77 °F
Dew Point 58 °F
Humidity 58%
Rainfall in
Snow Depth Not available.
6:08 AM 7:26 PM
Waning Crescent, 3% visible
METAR KCDA 301855Z AUTO 18004KT 10SM CLR 22/14 A3010 RMK AO2 T02240135

10-Day Weather Forecast

Almanac

Astronomy

Aug. 30, 2016 Rise Set
Actual Time
Civil Twilight
Nautical Twilight
Astronomical Twilight
Moon
Length of Visible Light
Length of Day
Tomorrow will be .
, % of the Moon is Illuminated

Today's Extremes

State Highs State Lows

Community

WunderPhotos

Upload Photos

1,935,879 photos uploaded!

WunderBlog® & News

Nearby

Air Quality

  Air Quality AQ Index Pollutant
Not available.

Snow Depth

Station Depth Elevation

Earthquake Activity

City Distance Mag. Time & Date
Minimum magnitude displayed is 2.5.

Coastal Water Temperatures

Place Temperature

Stations

Nearby Weather Stations

Station Location Temp. Windchill Dew Point Humidity Wind Precip. Elev Updated Type
                   

Watches & Warnings

There are currently no watches in effect.